Time;durP1;ratioP1;P1;durP2;ratioP2;P2;SDS_P1;SDS_P2;PMS_P1;PMS_P2;Temp;Humidity;BMP_temperature;BMP_pressure;BME280_temperature;BME280_humidity;BME280_pressure;Samples;Min_cycle;Max_cycle;Signal;HPM_P1;HPM_P2
2021/12/12 00:00:35;;;;;;;26.92;14.55;;;;;;;1.35;66.34;99822.06;7630338;32;37516;-77
2021/12/12 00:04:53;;;;;;;26.52;13.70;;;;;;;1.07;67.08;99815.12;7632468;32;39306;-77
2021/12/12 00:09:20;;;;;;;32.28;14.93;;;;;;;1.25;66.25;99810.94;7632448;32;39671;-77
2021/12/12 00:13:41;;;;;;;24.20;14.45;;;;;;;1.13;67.13;99811.56;7632325;32;38582;-77
2021/12/12 00:17:58;;;;;;;26.85;13.80;;;;;;;1.11;66.76;99816.34;7632402;32;37362;-77
2021/12/12 00:22:21;;;;;;;24.75;15.07;;;;;;;0.92;67.49;99822.56;7632239;32;39371;-77
2021/12/12 00:26:38;;;;;;;21.15;13.25;;;;;;;1.05;67.28;99811.81;7632311;32;39943;-77
2021/12/12 00:31:03;;;;;;;26.02;15.32;;;;;;;1.33;66.05;99817.94;7632082;32;37841;-77
2021/12/12 00:35:20;;;;;;;29.75;15.82;;;;;;;0.39;69.11;99818.00;7631065;32;38252;-77
2021/12/12 00:39:39;;;;;;;26.95;15.20;;;;;;;0.83;67.59;99829.16;7631988;32;39434;-77
2021/12/12 00:43:55;;;;;;;28.20;15.90;;;;;;;0.81;67.50;99836.59;7631949;32;40711;-77
2021/12/12 00:48:11;;;;;;;32.38;16.98;;;;;;;0.51;68.60;99843.19;7631876;32;38615;-77
2021/12/12 00:52:27;;;;;;;24.17;15.38;;;;;;;0.06;70.69;99850.13;7631943;32;38011;-77
2021/12/12 00:56:46;;;;;;;27.52;14.73;;;;;;;0.67;68.27;99852.72;7631862;32;39307;-77
2021/12/12 01:01:07;;;;;;;30.88;16.40;;;;;;;0.90;67.91;99848.78;7631829;32;39855;-77
2021/12/12 01:05:24;;;;;;;30.12;15.07;;;;;;;0.60;67.88;99845.69;7631710;32;37994;-77
2021/12/12 01:09:45;;;;;;;29.45;16.77;;;;;;;0.84;67.35;99846.94;7631708;32;37681;-76
2021/12/12 01:14:05;;;;;;;29.83;15.02;;;;;;;0.79;67.82;99838.66;7631675;32;39485;-76
2021/12/12 01:18:25;;;;;;;30.10;16.98;;;;;;;0.60;68.25;99856.41;7631520;32;40631;-76
2021/12/12 01:22:43;;;;;;;29.55;14.18;;;;;;;1.12;66.82;99849.37;7631245;32;38018;-77
2021/12/12 01:27:00;;;;;;;33.13;17.58;;;;;;;0.82;67.71;99849.81;7631351;32;37170;-77
2021/12/12 01:31:24;;;;;;;32.50;16.75;;;;;;;0.49;68.39;99850.63;7631105;32;39094;-76
2021/12/12 01:35:41;;;;;;;33.08;17.98;;;;;;;1.02;66.80;99860.56;7630758;32;40541;-76
2021/12/12 01:40:03;;;;;;;31.52;16.98;;;;;;;0.11;69.92;99869.09;7630879;32;37531;-77
2021/12/12 01:44:29;;;;;;;33.40;16.77;;;;;;;0.65;68.18;99862.81;7630928;32;37213;-77
2021/12/12 01:49:01;;;;;;;38.55;17.92;;;;;;;0.02;70.62;99867.59;7629730;32;39320;-77
2021/12/12 01:53:20;;;;;;;33.72;16.83;;;;;;;1.11;67.00;99869.22;7630776;32;39687;-77
2021/12/12 01:57:37;;;;;;;34.97;18.48;;;;;;;0.82;68.30;99873.16;7630616;32;37898;-77
2021/12/12 02:02:07;;;;;;;32.13;17.65;;;;;;;0.10;69.89;99867.44;7630456;32;37254;-77
2021/12/12 02:06:24;;;;;;;40.58;19.30;;;;;;;0.42;68.95;99875.78;7630778;32;39314;-77
2021/12/12 02:10:57;;;;;;;36.50;17.48;;;;;;;0.22;69.90;99876.53;7630226;32;39843;-77
2021/12/12 02:15:14;;;;;;;;;;;;;;;0.70;68.11;99878.31;7630631;32;38725;-77
2021/12/12 02:19:39;;;;;;;35.75;17.75;;;;;;;0.73;67.40;99884.09;7630395;32;37576;-76
2021/12/12 02:37:55;;;;;;;37.72;19.48;;;;;;;0.16;69.39;99883.56;7629750;32;37872;-77
2021/12/12 02:42:15;;;;;;;39.08;19.55;;;;;;;0.47;68.95;99881.38;7629544;32;39258;-77
2021/12/12 02:46:35;;;;;;;33.20;17.55;;;;;;;0.29;68.93;99880.06;7629503;32;40051;-77
2021/12/12 02:50:52;;;;;;;39.28;17.55;;;;;;;0.89;67.60;99866.75;7632208;32;38560;-76
2021/12/12 02:55:18;;;;;;;38.58;19.70;;;;;;;0.91;67.07;99861.16;7633326;32;37517;-76
2021/12/12 02:59:36;;;;;;;37.65;19.60;;;;;;;0.71;67.13;99855.81;7632226;32;40122;-76
2021/12/12 03:03:54;;;;;;;37.95;18.80;;;;;;;0.54;68.92;99864.25;7632086;32;39214;-78
2021/12/12 03:08:11;;;;;;;37.40;19.25;;;;;;;0.64;67.94;99863.00;7633135;32;37838;-77
2021/12/12 03:12:33;;;;;;;40.22;18.15;;;;;;;1.05;67.07;99867.34;7633135;32;37985;-76
2021/12/12 03:16:50;;;;;;;37.92;18.83;;;;;;;0.69;68.67;99872.13;7633213;32;39464;-77
2021/12/12 03:21:15;;;;;;;37.78;17.95;;;;;;;0.89;67.78;99884.72;7633038;32;39994;-76
2021/12/12 03:25:36;;;;;;;39.72;18.50;;;;;;;0.96;67.20;99895.47;7632894;32;37881;-77
2021/12/12 03:29:53;;;;;;;48.50;20.33;;;;;;;1.04;66.90;99895.25;7632771;32;37202;-76
2021/12/12 03:34:21;;;;;;;38.95;18.85;;;;;;;0.89;66.71;99900.81;7632409;32;39975;-77
2021/12/12 03:38:41;;;;;;;40.88;18.87;;;;;;;0.58;67.94;99888.00;7632819;32;40849;-77
2021/12/12 03:42:59;;;;;;;37.80;16.90;;;;;;;1.05;66.67;99894.22;7633063;32;37845;-77
2021/12/12 03:47:19;;;;;;;40.53;18.35;;;;;;;1.03;66.33;99894.41;7632687;32;37201;-77
2021/12/12 03:51:38;;;;;;;34.53;18.17;;;;;;;0.62;67.53;99895.44;7632761;32;40101;-76
2021/12/12 03:55:55;;;;;;;30.80;14.98;;;;;;;0.92;66.44;99903.91;7632605;32;38974;-77
2021/12/12 04:00:47;;;;;;;33.30;16.33;;;;;;;1.08;65.21;99901.84;7631167;32;37929;-77
2021/12/12 04:05:03;;;;;;;35.38;16.73;;;;;;;0.54;67.11;99922.44;7624428;32;37716;-77
2021/12/12 04:09:20;;;;;;;33.92;16.87;;;;;;;0.59;67.07;99925.34;7632433;32;40078;-76
2021/12/12 04:13:42;;;;;;;31.17;16.58;;;;;;;1.17;65.07;99927.47;7631322;32;39608;-77
2021/12/12 04:17:58;;;;;;;31.42;16.37;;;;;;;1.34;64.34;99933.25;7631074;32;37766;-76
2021/12/12 04:22:15;;;;;;;33.20;15.65;;;;;;;1.54;63.48;99948.53;7632245;32;37561;-77
2021/12/12 04:26:38;;;;;;;31.83;15.05;;;;;;;1.30;64.02;99954.31;7632276;32;39578;-77
2021/12/12 04:30:54;;;;;;;;;;;;;;;0.80;65.31;99958.41;7631251;32;40865;-76
2021/12/12 04:35:25;;;;;;;29.02;15.15;;;;;;;0.95;65.11;99945.66;7632318;32;39088;-77
2021/12/12 04:39:46;;;;;;;30.85;14.87;;;;;;;1.35;63.76;99955.56;7631072;32;38019;-77
2021/12/12 04:44:03;;;;;;;29.50;15.18;;;;;;;1.16;64.59;99954.53;7632061;32;39049;-77
2021/12/12 04:53:07;;;;;;;34.20;15.98;;;;;;;1.20;64.10;99958.47;7631896;32;37963;-77
2021/12/12 04:57:41;;;;;;;36.65;15.80;;;;;;;0.93;64.87;99969.16;7631993;32;37294;-77
2021/12/12 05:02:07;;;;;;;31.83;15.70;;;;;;;0.84;65.20;99962.34;7630745;32;39492;-77
2021/12/12 05:06:32;;;;;;;33.80;15.30;;;;;;;1.08;64.54;99959.06;7631734;32;40774;-77
2021/12/12 05:11:11;;;;;;;26.48;14.52;;;;;;;0.29;66.87;99968.56;7629618;32;37893;-77
2021/12/12 05:15:46;;;;;;;37.83;16.58;;;;;;;0.90;64.84;99969.59;7631627;32;38085;-77
2021/12/12 05:20:11;;;;;;;23.65;13.05;;;;;;;0.92;63.69;99964.84;7630710;32;39442;-76
2021/12/12 05:24:29;;;;;;;28.73;14.77;;;;;;;1.10;63.25;99965.06;7631368;32;40021;-77
2021/12/12 05:29:18;;;;;;;28.08;14.43;;;;;;;0.63;64.38;99988.31;7631139;32;36895;-76
2021/12/12 05:33:35;;;;;;;30.40;15.23;;;;;;;0.90;64.10;99980.31;7623042;32;36984;-77
2021/12/12 05:37:53;;;;;;;27.55;14.82;;;;;;;1.43;62.12;99969.63;7631125;32;39217;-77
2021/12/12 05:42:11;;;;;;;29.12;14.10;;;;;;;1.09;62.66;99963.41;7631041;32;40095;-77
2021/12/12 05:46:28;;;;;;;23.87;13.05;;;;;;;1.38;61.40;99977.47;7630722;32;38588;-77
2021/12/12 05:50:44;;;;;;;31.00;16.17;;;;;;;1.15;62.21;99979.72;7629662;32;37542;-77
2021/12/12 05:55:02;;;;;;;23.77;13.65;;;;;;;0.56;63.01;99987.47;7630724;32;39857;-77
2021/12/12 05:59:20;;;;;;;27.90;14.73;;;;;;;0.89;61.86;99995.59;7630603;32;41789;-77
2021/12/12 06:03:40;;;;;;;28.98;14.93;;;;;;;1.02;62.19;100000.16;7629313;32;38109;-77
2021/12/12 06:07:57;;;;;;;30.35;14.70;;;;;;;0.68;63.46;100004.62;7630498;32;37836;-77
2021/12/12 06:12:14;;;;;;;29.15;14.77;;;;;;;0.85;62.73;100005.09;7630262;32;40033;-77
2021/12/12 06:16:32;;;;;;;27.37;14.43;;;;;;;1.30;61.19;100002.66;7630118;32;39999;-78
2021/12/12 06:20:49;;;;;;;25.23;13.57;;;;;;;1.23;60.58;99998.34;7628867;32;37768;-76
2021/12/12 06:25:06;;;;;;;29.50;14.30;;;;;;;0.53;62.95;100014.69;7632889;32;37887;-77
2021/12/12 06:29:22;;;;;;;20.55;11.27;;;;;;;0.57;63.46;100018.62;7632251;32;40112;-74
2021/12/12 06:33:39;;;;;;;26.48;13.40;;;;;;;0.59;62.85;100029.16;7633532;32;40687;-77
2021/12/12 06:37:58;;;;;;;25.70;12.32;;;;;;;0.74;62.67;100030.66;7633408;32;37810;-76
2021/12/12 06:42:15;;;;;;;23.55;13.13;;;;;;;1.09;61.19;100033.22;7633502;32;37149;-76
2021/12/12 06:46:32;;;;;;;28.05;13.90;;;;;;;0.66;62.85;100038.88;7633339;32;40116;-77
2021/12/12 06:50:51;;;;;;;29.52;14.38;;;;;;;0.72;62.84;100038.06;7633387;32;40066;-77
2021/12/12 06:55:12;;;;;;;28.45;13.80;;;;;;;0.62;62.88;100048.38;7633285;32;38036;-76
2021/12/12 06:59:31;;;;;;;21.92;12.70;;;;;;;0.66;62.94;100038.88;7633376;32;37984;-76
2021/12/12 07:03:49;;;;;;;25.52;13.80;;;;;;;0.75;62.93;100037.66;7633170;32;39282;-77
2021/12/12 07:08:05;;;;;;;23.25;12.27;;;;;;;1.15;61.14;100046.87;7633093;32;39747;-77
2021/12/12 07:12:23;;;;;;;20.90;12.10;;;;;;;0.60;63.89;100044.22;7632935;32;38729;-82
2021/12/12 07:16:40;;;;;;;23.38;12.07;;;;;;;1.10;68.13;100042.09;7632430;32;38034;-79
2021/12/12 07:21:01;;;;;;;25.75;13.75;;;;;;;1.33;61.49;100044.44;7631659;32;39067;-78
2021/12/12 07:25:19;;;;;;;21.55;10.85;;;;;;;0.82;62.62;100036.87;7632946;32;40746;-79
2021/12/12 07:29:35;;;;;;;23.30;12.75;;;;;;;0.55;62.92;100028.72;7631870;32;37744;-80
2021/12/12 07:33:55;;;;;;;24.25;13.57;;;;;;;0.58;63.12;100035.56;7631257;32;37310;-79
2021/12/12 07:38:14;;;;;;;25.17;13.90;;;;;;;0.67;62.84;100034.34;7632805;32;39064;-80
2021/12/12 07:42:30;;;;;;;28.38;13.48;;;;;;;0.57;63.05;100042.78;7632734;32;40755;-83
2021/12/12 07:46:48;;;;;;;23.90;13.48;;;;;;;0.69;62.70;100040.31;7631527;32;37637;-81
2021/12/12 07:51:04;;;;;;;25.25;14.38;;;;;;;0.83;62.31;100033.16;7632661;32;37339;-79
2021/12/12 07:55:21;;;;;;;22.77;12.68;;;;;;;1.01;61.40;100038.78;7632452;32;40027;-80
2021/12/12 07:59:41;;;;;;;21.50;12.45;;;;;;;1.69;59.44;100037.81;7631290;32;40109;-83
2021/12/12 08:03:57;;;;;;;22.75;11.98;;;;;;;1.91;59.40;100042.97;7632410;32;37770;-79
2021/12/12 08:08:14;;;;;;;25.45;11.50;;;;;;;2.29;58.48;100034.19;7632436;32;37195;-78
2021/12/12 08:12:31;;;;;;;22.00;12.25;;;;;;;2.38;59.48;100032.94;7632349;32;39257;-81
2021/12/12 08:16:48;;;;;;;23.35;12.07;;;;;;;2.62;56.60;100037.63;7630956;32;40832;-78
2021/12/12 08:21:05;;;;;;;22.62;11.90;;;;;;;2.94;58.23;100036.84;7632029;32;38799;-82
2021/12/12 08:25:22;;;;;;;23.40;11.98;;;;;;;3.38;54.27;100041.34;7630761;32;37140;-83
2021/12/12 08:29:39;;;;;;;23.65;13.02;;;;;;;3.69;53.64;100031.56;7631820;32;40212;-83
2021/12/12 08:33:55;;;;;;;21.98;11.85;;;;;;;3.32;54.47;100031.41;7631064;32;39702;-83
2021/12/12 08:38:13;;;;;;;21.62;11.18;;;;;;;3.72;53.43;100024.88;7631927;32;37816;-82
2021/12/12 08:42:29;;;;;;;22.17;11.73;;;;;;;3.77;52.91;100027.75;7632077;32;39694;-82
2021/12/12 08:46:49;;;;;;;22.42;12.00;;;;;;;4.23;52.11;100029.16;7630753;32;40028;-81
2021/12/12 08:51:11;;;;;;;18.35;11.32;;;;;;;4.24;51.84;100028.13;7631971;32;40017;-81
2021/12/12 08:55:35;;;;;;;21.23;10.48;;;;;;;4.33;51.58;100028.66;7631864;32;38715;-82
2021/12/12 08:59:52;;;;;;;17.05;9.70;;;;;;;4.68;50.90;100030.72;7632020;32;37273;-83
2021/12/12 09:04:09;;;;;;;17.08;9.32;;;;;;;4.70;51.11;100031.31;7631475;32;39238;-81
2021/12/12 09:09:14;;;;;;;20.27;9.80;;;;;;;5.12;50.26;100025.97;7631048;32;40523;-83
2021/12/12 09:13:39;;;;;;;16.52;8.98;;;;;;;4.92;49.28;100026.25;7624681;32;37940;-82
2021/12/12 09:18:03;;;;;;;16.25;8.48;;;;;;;4.93;50.26;100037.88;7631628;32;36943;-82
2021/12/12 09:22:48;;;;;;;20.67;10.60;;;;;;;5.21;49.97;100043.53;7630407;32;39345;-82
2021/12/12 09:27:08;;;;;;;22.23;9.38;;;;;;;4.82;50.96;100045.69;7631336;32;39956;-80
2021/12/12 09:31:33;;;;;;;17.30;9.30;;;;;;;5.29;53.35;100045.06;7631254;32;38088;-80
2021/12/12 09:36:00;;;;;;;16.92;8.60;;;;;;;5.45;50.05;100039.00;7630051;32;37270;-82
2021/12/12 09:40:49;;;;;;;15.52;8.15;;;;;;;5.14;49.19;100031.97;7630008;32;40140;-82
2021/12/12 09:45:38;;;;;;;12.93;8.20;;;;;;;5.52;48.40;100044.31;7623912;32;40105;-81
2021/12/12 09:54:46;;;;;;;14.45;7.80;;;;;;;5.89;47.76;100032.47;7630805;32;37376;-81
2021/12/12 09:59:05;;;;;;;13.07;7.20;;;;;;;5.92;47.92;100022.00;7606450;32;38088;-82
2021/12/12 10:03:26;;;;;;;12.00;6.87;;;;;;;5.71;48.55;100033.37;7607950;32;40017;-81
2021/12/12 10:07:54;;;;;;;13.20;6.95;;;;;;;5.78;47.65;100034.94;7607724;32;37969;-82
2021/12/12 10:12:16;;;;;;;11.30;6.37;;;;;;;5.77;47.94;100024.34;7607789;32;37449;-81
2021/12/12 10:17:00;;;;;;;11.70;7.07;;;;;;;6.09;46.78;100027.56;7627169;32;39954;-80
2021/12/12 10:21:30;;;;;;;11.45;6.22;;;;;;;6.22;47.90;100034.59;7626598;32;41218;-78
2021/12/12 10:25:46;;;;;;;12.40;6.57;;;;;;;6.13;47.53;100022.50;7653301;32;37835;-80
2021/12/12 10:30:15;;;;;;;11.35;5.72;;;;;;;6.36;47.05;100030.59;7658455;32;37869;-80
2021/12/12 10:34:41;;;;;;;9.98;5.87;;;;;;;6.45;46.52;100035.62;7646144;32;39302;-81
2021/12/12 10:39:09;;;;;;;11.02;5.53;;;;;;;6.15;47.84;100034.72;7632926;32;40474;-79
2021/12/12 10:43:38;;;;;;;7.93;4.68;;;;;;;6.93;46.26;100034.41;7631755;32;38647;-79
2021/12/12 10:48:07;;;;;;;8.18;5.28;;;;;;;7.24;45.36;100032.28;7649186;32;37084;-78
2021/12/12 10:52:36;;;;;;;6.78;4.50;;;;;;;6.95;45.22;100033.13;7631710;32;39498;-79
2021/12/12 10:57:15;;;;;;;8.88;4.68;;;;;;;6.74;45.66;100033.78;7631480;32;40115;-79
2021/12/12 11:01:36;;;;;;;8.25;4.93;;;;;;;7.50;45.16;100031.69;7638399;32;37960;-81
2021/12/12 11:06:16;;;;;;;7.10;4.55;;;;;;;7.80;42.22;100032.41;7643831;32;37638;-81
2021/12/12 11:10:35;;;;;;;8.98;4.85;;;;;;;8.04;42.77;100030.34;7630012;32;39478;-80
2021/12/12 11:15:13;;;;;;;9.05;4.70;;;;;;;7.78;42.34;100032.66;7631974;32;39973;-80
2021/12/12 11:19:38;;;;;;;9.35;4.82;;;;;;;7.57;42.47;100033.37;7633134;32;39501;-76
2021/12/12 11:24:23;;;;;;;10.45;5.12;;;;;;;7.57;43.24;100036.09;7633009;32;37185;-77
2021/12/12 11:28:47;;;;;;;8.70;4.25;;;;;;;8.31;46.37;100035.84;7632872;32;40004;-79
2021/12/12 11:33:06;;;;;;;9.13;5.25;;;;;;;8.27;42.03;100030.09;7631868;32;39674;-80
2021/12/12 11:37:54;;;;;;;8.23;4.60;;;;;;;8.38;42.14;100024.81;7632874;32;37593;-80
2021/12/12 11:42:16;;;;;;;10.60;4.90;;;;;;;8.11;42.17;100022.84;7632924;32;37201;-80
2021/12/12 11:46:52;;;;;;;7.57;4.70;;;;;;;8.32;41.96;100025.84;7631720;32;39585;-80
2021/12/12 11:51:17;;;;;;;9.85;5.03;;;;;;;8.15;42.40;100021.25;7631613;32;39586;-80
2021/12/12 11:55:44;;;;;;;9.27;5.00;;;;;;;8.84;41.61;100028.94;7632535;32;37919;-80
2021/12/12 12:00:11;;;;;;;11.82;5.32;;;;;;;8.54;40.89;100024.00;7632529;32;37661;-81
2021/12/12 12:04:42;;;;;;;10.55;5.10;;;;;;;8.73;42.11;100021.78;7632529;32;40169;-81
2021/12/12 12:09:28;;;;;;;9.88;5.22;;;;;;;8.49;41.10;100031.25;7632522;32;40109;-82
2021/12/12 12:14:02;;;;;;;11.45;5.62;;;;;;;8.57;41.30;100023.50;7632495;32;37956;-82
2021/12/12 12:18:46;;;;;;;9.23;5.53;;;;;;;8.64;41.45;100024.13;7624287;32;236117;-81
2021/12/12 12:23:41;;;;;;;11.95;5.15;;;;;;;8.08;41.60;100023.31;7632315;32;39212;-82
2021/12/12 12:28:06;;;;;;;10.85;6.00;;;;;;;8.74;41.73;100022.59;7632294;32;40547;-81
2021/12/12 12:32:46;;;;;;;11.25;5.97;;;;;;;8.34;41.34;100020.97;7631021;32;37983;-81
2021/12/12 12:37:40;;;;;;;10.27;5.53;;;;;;;8.68;41.60;100029.84;7632067;32;37714;-81
2021/12/12 12:42:33;;;;;;;11.57;6.18;;;;;;;8.31;40.89;100029.63;7632170;32;39446;-81
2021/12/12 12:47:27;;;;;;;10.43;5.45;;;;;;;7.95;41.64;100023.66;7631993;32;39945;-82
2021/12/12 12:52:15;;;;;;;9.73;5.28;;;;;;;7.22;42.66;100029.00;7632002;32;37725;-82
2021/12/12 12:56:49;;;;;;;11.38;6.18;;;;;;;7.94;42.62;100030.19;7613511;32;36896;-82
2021/12/12 13:01:27;;;;;;;12.15;5.80;;;;;;;8.30;42.34;100038.84;7632058;32;40176;-82
2021/12/12 13:06:01;;;;;;;11.95;6.65;;;;;;;8.23;40.90;100034.41;7631638;32;40888;-82
2021/12/12 13:10:22;;;;;;;13.65;6.30;;;;;;;8.49;40.30;100042.12;7631617;32;38584;-82
2021/12/12 13:14:50;;;;;;;12.27;5.90;;;;;;;9.52;37.84;100025.00;7631883;32;37953;-81
2021/12/12 13:19:30;;;;;;;12.25;6.35;;;;;;;10.21;37.41;100023.31;7631684;32;39371;-81
2021/12/12 13:23:58;;;;;;;13.65;5.68;;;;;;;9.98;37.44;100025.34;7631483;32;39960;-82
2021/12/12 13:28:27;;;;;;;21.58;7.57;;;;;;;11.52;35.13;100022.41;7631144;32;37909;-79
2021/12/12 13:32:46;;;;;;;11.18;5.60;;;;;;;13.98;31.70;100018.62;7630652;32;37902;-87
2021/12/12 13:37:14;;;;;;;10.05;5.82;;;;;;;14.95;26.35;100013.13;7631292;32;39420;-80
2021/12/12 13:41:36;;;;;;;12.25;6.20;;;;;;;16.46;26.33;100025.78;7631181;32;40597;-80
2021/12/12 13:46:16;;;;;;;12.43;5.97;;;;;;;18.98;22.08;100008.56;7629739;32;37775;-78
2021/12/12 13:50:50;;;;;;;12.80;6.47;;;;;;;18.32;22.06;100020.37;7631022;32;37773;-79
2021/12/12 13:55:19;;;;;;;12.60;6.82;;;;;;;18.16;21.74;100038.47;7629856;32;39428;-80
2021/12/12 13:59:56;;;;;;;12.13;6.12;;;;;;;18.15;22.36;100023.06;7630651;32;40853;-78
2021/12/12 14:04:53;;;;;;;10.65;5.78;;;;;;;17.13;22.52;100045.62;7629359;32;38781;-78
2021/12/12 14:09:13;;;;;;;14.20;6.65;;;;;;;15.83;24.45;100054.69;7627228;32;36879;-80
2021/12/12 14:13:43;;;;;;;10.65;5.55;;;;;;;14.05;27.19;100071.16;7629164;32;39348;-80
2021/12/12 14:18:01;;;;;;;13.77;5.87;;;;;;;14.08;27.71;100078.81;7629252;32;39649;-81
2021/12/12 14:22:20;;;;;;;11.70;6.03;;;;;;;13.14;28.54;100085.22;7630170;32;38072;-77
2021/12/12 14:26:43;;;;;;;11.70;6.50;;;;;;;12.19;30.80;100086.06;7629960;32;37926;-80
2021/12/12 14:30:59;;;;;;;11.33;6.23;;;;;;;10.06;34.05;100105.78;7628685;32;39138;-80
2021/12/12 14:35:19;;;;;;;11.68;6.35;;;;;;;8.80;36.91;100114.00;7628669;32;40716;-80
2021/12/12 14:39:37;;;;;;;14.15;7.00;;;;;;;8.97;36.39;100117.50;7629936;32;37784;-81
2021/12/12 14:43:55;;;;;;;12.10;6.37;;;;;;;6.84;41.58;100122.59;7630839;32;37861;-80
2021/12/12 14:48:15;;;;;;;12.18;6.35;;;;;;;6.30;43.00;100120.88;7633534;32;38385;-80
2021/12/12 14:52:38;;;;;;;12.57;6.47;;;;;;;5.24;45.45;100140.38;7632259;32;40711;-80
2021/12/12 14:57:03;;;;;;;13.45;7.10;;;;;;;4.35;48.39;100145.31;7632367;32;37948;-80
2021/12/12 15:01:41;;;;;;;12.23;6.90;;;;;;;4.04;49.34;100141.63;7633366;32;37258;-79
2021/12/12 15:06:04;;;;;;;13.85;7.20;;;;;;;4.40;48.80;100150.88;7633213;32;39388;-80
2021/12/12 15:10:45;;;;;;;15.60;6.83;;;;;;;4.07;50.18;100154.69;7632227;32;40746;-79
2021/12/12 15:15:13;;;;;;;14.07;6.57;;;;;;;3.93;49.89;100170.16;7632959;32;38817;-80
2021/12/12 15:19:31;;;;;;;12.45;6.55;;;;;;;3.99;50.52;100168.44;7633150;32;37257;-80
2021/12/12 15:23:54;;;;;;;13.15;7.03;;;;;;;3.79;50.98;100171.28;7632978;32;39076;-79
2021/12/12 15:28:14;;;;;;;12.73;7.07;;;;;;;3.30;52.85;100179.03;7631715;32;39577;-79
2021/12/12 15:32:31;;;;;;;10.40;6.82;;;;;;;3.05;53.85;100180.78;7631746;32;38636;-80
2021/12/12 15:36:57;;;;;;;11.12;6.60;;;;;;;2.93;54.46;100199.47;7632537;32;37305;-80
2021/12/12 15:41:24;;;;;;;12.15;7.05;;;;;;;2.66;54.54;100191.47;7632839;32;40170;-79
2021/12/12 15:45:48;;;;;;;14.07;6.53;;;;;;;3.01;53.89;100191.97;7632734;32;40856;-80
2021/12/12 15:50:16;;;;;;;12.20;6.37;;;;;;;2.69;54.00;100209.03;7632722;32;38660;-81
2021/12/12 15:54:33;;;;;;;12.50;6.68;;;;;;;3.11;53.31;100206.87;7632644;32;37901;-81
2021/12/12 15:59:04;;;;;;;12.00;7.43;;;;;;;2.14;55.64;100210.13;7631406;32;39805;-81
2021/12/12 16:03:26;;;;;;;10.02;6.78;;;;;;;2.51;55.08;100215.91;7632719;32;40739;-82
2021/12/12 16:07:48;;;;;;;10.40;6.70;;;;;;;2.35;55.68;100229.78;7632366;32;38844;-82
2021/12/12 16:12:09;;;;;;;13.27;6.87;;;;;;;2.29;55.69;100225.22;7632529;32;37369;-83
2021/12/12 16:16:30;;;;;;;18.15;8.13;;;;;;;2.42;55.45;100241.38;7632524;32;39317;-81
2021/12/12 16:20:50;;;;;;;16.12;7.72;;;;;;;2.31;55.92;100242.84;7632457;32;40027;-81
2021/12/12 16:25:12;;;;;;;12.77;6.93;;;;;;;2.15;56.36;100241.34;7632317;32;37709;-80
2021/12/12 16:29:28;;;;;;;12.63;7.68;;;;;;;2.03;56.83;100243.00;7630204;32;37069;-81
2021/12/12 16:33:56;;;;;;;16.92;8.50;;;;;;;1.97;57.53;100249.22;7626204;32;39553;-80
2021/12/12 16:38:20;;;;;;;11.25;7.30;;;;;;;1.72;58.26;100265.06;7628113;32;40083;-81
2021/12/12 16:42:58;;;;;;;14.57;7.12;;;;;;;2.01;57.87;100253.13;7628488;32;37840;-80
2021/12/12 16:47:34;;;;;;;11.07;6.78;;;;;;;1.99;57.49;100269.47;7626899;32;37155;-81
2021/12/12 16:52:01;;;;;;;12.05;6.53;;;;;;;2.12;57.43;100257.06;7629801;32;39420;-80
2021/12/12 16:56:19;;;;;;;13.50;6.80;;;;;;;2.29;56.69;100263.72;7628383;32;40671;-79
2021/12/12 17:00:40;;;;;;;16.20;8.02;;;;;;;2.14;57.17;100282.75;7627013;32;38309;-80
2021/12/12 17:04:57;;;;;;;16.48;7.30;;;;;;;2.62;55.99;100274.50;7628387;32;37123;-80
2021/12/12 17:09:29;;;;;;;13.68;7.12;;;;;;;2.29;56.39;100279.03;7625555;32;39626;-80
2021/12/12 17:13:47;;;;;;;13.85;8.15;;;;;;;1.93;57.99;100282.91;7629051;32;40725;-81
2021/12/12 17:18:12;;;;;;;13.88;6.32;;;;;;;1.55;58.81;100294.97;7629486;32;37413;-80
2021/12/12 17:22:29;;;;;;;11.80;6.93;;;;;;;2.15;56.83;100289.78;7629521;32;37237;-79
2021/12/12 17:26:49;;;;;;;12.93;6.80;;;;;;;2.32;56.40;100290.22;7616077;32;39564;-79
2021/12/12 17:31:10;;;;;;;13.50;7.28;;;;;;;2.21;56.90;100288.97;7629011;32;38572;-80
2021/12/12 17:35:48;;;;;;;14.93;6.75;;;;;;;2.21;56.94;100291.66;7629422;32;38552;-78
2021/12/12 17:40:14;;;;;;;13.35;7.75;;;;;;;2.30;57.31;100288.78;7631260;32;37495;-80
2021/12/12 17:45:01;;;;;;;15.88;8.15;;;;;;;1.59;59.63;100292.72;7630053;32;39355;-80
2021/12/12 17:49:48;;;;;;;14.60;7.00;;;;;;;2.18;57.49;100292.06;7630854;32;40733;-82
2021/12/12 17:54:34;;;;;;;15.13;6.93;;;;;;;1.96;56.98;100295.94;7629825;32;37988;-81
2021/12/12 17:59:04;;;;;;;13.00;7.53;;;;;;;1.80;59.15;100289.91;7630815;32;37201;-80
2021/12/12 18:03:25;;;;;;;13.35;7.40;;;;;;;1.95;57.90;100289.75;7629007;32;40108;-81
2021/12/12 18:07:56;;;;;;;17.40;7.85;;;;;;;2.02;58.57;100301.34;7628185;32;40738;-81
2021/12/12 18:12:22;;;;;;;12.07;7.35;;;;;;;1.33;60.11;100313.06;7624902;32;38664;-82
2021/12/12 18:17:05;;;;;;;12.52;7.60;;;;;;;1.83;58.61;100319.09;7625631;32;38245;-82
2021/12/12 18:21:25;;;;;;;16.08;7.85;;;;;;;1.71;59.06;100317.16;7630118;32;39283;-82
2021/12/12 18:25:49;;;;;;;11.45;6.87;;;;;;;1.60;59.77;100323.94;7629696;32;40262;-79
2021/12/12 18:30:21;;;;;;;16.55;7.87;;;;;;;1.75;58.84;100332.69;7623251;32;38610;-80
2021/12/12 18:34:44;;;;;;;15.73;7.57;;;;;;;1.64;59.63;100331.41;7630924;32;37859;-81
2021/12/12 18:39:08;;;;;;;13.53;7.80;;;;;;;1.75;58.74;100331.87;7630888;32;39348;-81
2021/12/12 18:43:40;;;;;;;14.00;7.87;;;;;;;1.86;59.03;100350.94;7632096;32;39888;-80
2021/12/12 18:47:59;;;;;;;12.60;7.28;;;;;;;1.43;60.02;100351.16;7629165;32;37558;-80
2021/12/12 18:52:21;;;;;;;14.07;8.02;;;;;;;1.61;59.66;100357.88;7629207;32;36924;-80
2021/12/12 18:56:47;;;;;;;11.23;6.75;;;;;;;1.72;59.12;100359.97;7629702;32;40054;-80
2021/12/12 19:01:28;;;;;;;13.95;7.75;;;;;;;1.64;59.11;100362.84;7631888;32;39774;-80
2021/12/12 19:05:48;;;;;;;17.90;8.75;;;;;;;1.25;59.57;100364.25;7629527;32;36660;-79
2021/12/12 19:10:07;;;;;;;12.20;7.20;;;;;;;1.41;59.58;100366.63;7631551;32;37169;-79
2021/12/12 19:14:27;;;;;;;14.27;7.97;;;;;;;1.96;57.91;100357.81;7631768;32;40074;-80
2021/12/12 19:18:48;;;;;;;15.32;8.00;;;;;;;1.56;58.93;100365.69;7631156;32;41885;-79
2021/12/12 19:23:10;;;;;;;15.05;7.62;;;;;;;0.94;61.24;100365.47;7630743;32;37885;-82
2021/12/12 19:27:32;;;;;;;16.65;8.57;;;;;;;1.04;61.18;100374.03;7629556;32;38151;-80
2021/12/12 19:31:55;;;;;;;14.27;7.97;;;;;;;1.49;59.45;100361.09;7628825;32;39027;-80
2021/12/12 19:36:12;;;;;;;17.15;8.02;;;;;;;1.36;60.40;100377.13;7630088;32;39956;-80
2021/12/12 19:40:36;;;;;;;15.45;8.48;;;;;;;1.23;60.02;100385.94;7628966;32;36449;-79
2021/12/12 19:44:53;;;;;;;12.25;7.62;;;;;;;1.56;59.00;100387.19;7623685;32;37100;-80
2021/12/12 19:49:10;;;;;;;14.70;7.37;;;;;;;1.44;58.88;100395.78;7629289;32;39933;-79
2021/12/12 19:53:28;;;;;;;17.73;8.40;;;;;;;1.45;59.32;100400.16;7629558;32;38384;-80
2021/12/12 19:57:46;;;;;;;13.02;7.50;;;;;;;1.45;58.99;100402.84;7630999;32;37680;-80
2021/12/12 20:02:10;;;;;;;12.43;7.47;;;;;;;1.61;58.66;100408.94;7632937;32;36053;-79
2021/12/12 20:06:31;;;;;;;12.20;7.30;;;;;;;1.74;58.37;100411.66;7632645;32;40559;-79
2021/12/12 20:10:53;;;;;;;15.57;8.88;;;;;;;1.65;58.65;100407.50;7618729;32;38657;-79
2021/12/12 20:15:18;;;;;;;15.02;8.65;;;;;;;1.55;59.00;100417.78;7632118;32;37786;-80
2021/12/12 20:19:42;;;;;;;15.52;8.82;;;;;;;1.24;59.93;100421.69;7630927;32;37736;-79
2021/12/12 20:24:30;;;;;;;14.20;8.15;;;;;;;1.63;58.37;100415.75;7631030;32;40044;-79
2021/12/12 20:28:47;;;;;;;16.00;8.38;;;;;;;1.73;57.86;100422.66;7630534;32;39752;-79
2021/12/12 20:33:17;;;;;;;15.77;8.82;;;;;;;1.46;58.93;100403.66;7630287;32;37888;-80
2021/12/12 20:37:33;;;;;;;17.12;8.68;;;;;;;0.88;60.47;100411.88;7629658;32;37931;-79
2021/12/12 20:42:00;;;;;;;16.73;9.05;;;;;;;1.46;59.22;100399.09;7628469;32;39228;-78
2021/12/12 20:46:20;;;;;;;16.85;9.00;;;;;;;1.58;58.26;100391.31;7630427;32;39954;-79
2021/12/12 20:50:54;;;;;;;18.27;8.13;;;;;;;1.08;59.28;100391.41;7631360;32;37855;-77